createdAt,value
2023-04-19T00:00:08.625Z,11.90
2023-04-19T00:02:16.748Z,11.99
2023-04-19T00:04:20.617Z,12.00
2023-04-19T00:06:24.786Z,12.01
2023-04-19T00:08:27.694Z,11.89
2023-04-19T00:10:30.881Z,12.00
2023-04-19T00:12:33.730Z,11.95
2023-04-19T00:14:37.965Z,11.99
2023-04-19T00:16:41.164Z,12.06
2023-04-19T00:18:44.094Z,12.10
2023-04-19T00:20:48.785Z,12.05
2023-04-19T00:22:52.031Z,12.06
2023-04-19T00:24:55.505Z,12.10
2023-04-19T00:26:59.039Z,12.09
2023-04-19T00:29:01.991Z,12.12
2023-04-19T00:31:06.556Z,12.14
2023-04-19T00:33:12.975Z,12.16
2023-04-19T00:35:16.089Z,12.20
2023-04-19T00:37:18.885Z,12.27
2023-04-19T00:39:21.732Z,12.25
2023-04-19T00:41:24.601Z,12.14
2023-04-19T00:43:27.776Z,12.16
2023-04-19T00:45:30.679Z,12.06
2023-04-19T00:47:35.081Z,12.15
2023-04-19T00:49:38.636Z,12.19
2023-04-19T00:51:41.576Z,12.26
2023-04-19T00:53:44.593Z,12.27
2023-04-19T00:55:47.683Z,12.37
2023-04-19T00:57:51.933Z,12.40
2023-04-19T00:59:55.684Z,12.28
2023-04-19T01:01:58.916Z,12.43
2023-04-19T01:04:06.560Z,12.36
2023-04-19T01:06:09.604Z,12.45
2023-04-19T01:08:12.430Z,12.44
2023-04-19T01:10:15.641Z,12.38
2023-04-19T01:12:18.668Z,12.38
2023-04-19T01:14:21.486Z,12.28
2023-04-19T01:16:24.554Z,12.26
2023-04-19T01:18:32.854Z,12.31
2023-04-19T01:20:37.175Z,12.25
2023-04-19T01:22:42.073Z,12.36
2023-04-19T01:24:45.247Z,12.36
2023-04-19T01:26:48.098Z,12.37
2023-04-19T01:28:50.952Z,12.32
2023-04-19T01:30:54.192Z,12.28
2023-04-19T01:32:57.253Z,12.23
2023-04-19T01:35:00.172Z,12.21
2023-04-19T01:37:05.513Z,12.29
2023-04-19T01:39:11.558Z,12.20
2023-04-19T01:41:16.145Z,12.20
2023-04-19T01:43:19.339Z,12.23
2023-04-19T01:45:22.095Z,12.24
2023-04-19T01:47:27.061Z,12.20
2023-04-19T01:49:29.950Z,12.20
2023-04-19T01:51:32.760Z,12.33
2023-04-19T01:53:37.268Z,12.20
2023-04-19T01:55:41.701Z,12.22
2023-04-19T01:57:44.728Z,12.23
2023-04-19T01:59:47.566Z,12.33
2023-04-19T02:01:50.509Z,12.33
2023-04-19T02:03:54.178Z,12.32
2023-04-19T02:05:57.225Z,12.21
2023-04-19T02:08:01.276Z,12.28
2023-04-19T02:10:10.358Z,12.39
2023-04-19T02:12:14.649Z,12.17
2023-04-19T02:14:20.056Z,12.11
2023-04-19T02:16:22.950Z,12.17
2023-04-19T02:18:26.833Z,12.16
2023-04-19T02:20:29.717Z,12.23
2023-04-19T02:22:32.614Z,12.18
2023-04-19T02:24:35.571Z,12.20
2023-04-19T02:26:38.430Z,12.08
2023-04-19T02:28:42.710Z,12.07
2023-04-19T02:30:45.688Z,12.11
2023-04-19T02:32:49.022Z,12.14
2023-04-19T02:34:51.934Z,12.16
2023-04-19T02:36:55.022Z,12.01
2023-04-19T02:38:59.354Z,12.05
2023-04-19T02:41:04.312Z,12.03
2023-04-19T02:43:07.282Z,12.04
2023-04-19T02:45:11.960Z,11.94
2023-04-19T02:47:14.737Z,11.82
2023-04-19T02:49:17.585Z,12.00
2023-04-19T02:51:20.494Z,11.89
2023-04-19T02:53:23.742Z,11.88
2023-04-19T02:55:27.228Z,11.88
2023-04-19T02:57:41.099Z,11.96
2023-04-19T02:59:45.962Z,11.95
2023-04-19T03:01:50.566Z,11.75
2023-04-19T03:03:53.998Z,11.84
2023-04-19T03:05:57.021Z,11.94
2023-04-19T03:08:00.042Z,11.96
2023-04-19T03:10:03.141Z,11.80
2023-04-19T03:12:08.755Z,11.68
2023-04-19T03:14:11.610Z,11.70
2023-04-19T03:16:14.642Z,11.77
2023-04-19T03:18:20.883Z,11.77
2023-04-19T03:20:23.730Z,11.69
2023-04-19T03:22:26.780Z,11.62
2023-04-19T03:24:30.142Z,11.76
2023-04-19T03:26:35.010Z,11.72
2023-04-19T03:28:38.124Z,11.79
2023-04-19T03:30:59.665Z,11.87
2023-04-19T03:33:02.697Z,11.81
2023-04-19T03:35:08.002Z,11.79
2023-04-19T03:37:11.490Z,11.84
2023-04-19T03:39:14.408Z,11.89
2023-04-19T03:41:20.322Z,11.69
2023-04-19T03:43:25.151Z,11.69
2023-04-19T03:45:28.220Z,11.63
2023-04-19T03:47:31.381Z,11.69
2023-04-19T03:49:34.745Z,11.49
2023-04-19T03:51:41.831Z,11.54
2023-04-19T03:53:44.765Z,11.49
2023-04-19T03:55:47.818Z,11.51
2023-04-19T03:57:50.745Z,11.45
2023-04-19T04:00:08.275Z,11.41
2023-04-19T04:02:16.822Z,11.50
2023-04-19T04:04:20.129Z,11.49
2023-04-19T04:06:23.308Z,11.44
2023-04-19T04:08:27.852Z,11.37
2023-04-19T04:10:30.806Z,11.36
2023-04-19T04:12:33.723Z,11.28
2023-04-19T04:14:38.161Z,11.38
2023-04-19T04:16:42.146Z,11.18
2023-04-19T04:18:45.317Z,11.07
2023-04-19T04:20:51.042Z,11.07
2023-04-19T04:22:54.039Z,11.04
2023-04-19T04:25:01.102Z,11.15
2023-04-19T04:27:11.084Z,11.22
2023-04-19T04:29:17.453Z,11.26
2023-04-19T04:31:23.383Z,11.23
2023-04-19T04:33:29.425Z,11.13
2023-04-19T04:35:33.749Z,11.19
2023-04-19T04:37:43.605Z,11.06
2023-04-19T04:39:46.535Z,11.08
2023-04-19T04:41:52.137Z,11.07
2023-04-19T04:44:11.560Z,11.13
2023-04-19T04:46:16.232Z,11.06
2023-04-19T04:48:19.172Z,11.04
2023-04-19T04:50:22.117Z,11.03
2023-04-19T04:52:26.255Z,11.00
2023-04-19T04:54:55.345Z,10.82
2023-04-19T04:57:06.287Z,10.90
2023-04-19T04:59:09.261Z,10.93
2023-04-19T05:01:19.436Z,10.81
2023-04-19T05:03:23.592Z,10.79
2023-04-19T05:05:31.548Z,10.77
2023-04-19T05:07:34.455Z,10.80
2023-04-19T05:09:39.165Z,10.91
2023-04-19T05:11:42.216Z,10.84
2023-04-19T05:13:46.823Z,10.85
2023-04-19T05:15:50.101Z,10.80
2023-04-19T05:17:53.261Z,10.80
2023-04-19T05:19:58.099Z,10.65
2023-04-19T05:22:01.142Z,10.73
2023-04-19T05:24:04.719Z,10.65
2023-04-19T05:26:12.578Z,10.79
2023-04-19T05:28:16.583Z,10.66
2023-04-19T05:30:33.218Z,10.67
2023-04-19T05:32:36.819Z,10.71
2023-04-19T05:34:41.010Z,10.83
2023-04-19T05:36:47.799Z,10.90
2023-04-19T05:38:51.479Z,11.51
2023-04-19T05:40:54.581Z,12.20
2023-04-19T05:42:57.702Z,12.79
2023-04-19T05:45:02.875Z,13.40
2023-04-19T05:47:09.932Z,14.01
2023-04-19T05:49:43.214Z,14.36
2023-04-19T05:51:57.099Z,14.25
2023-04-19T05:54:07.561Z,13.93
2023-04-19T05:56:10.547Z,13.59
2023-04-19T05:58:13.556Z,14.13
2023-04-19T06:00:17.403Z,13.62
2023-04-19T06:02:30.342Z,13.27
2023-04-19T06:04:33.344Z,13.67
2023-04-19T06:06:38.067Z,14.06
2023-04-19T06:08:41.975Z,14.78
2023-04-19T06:10:54.585Z,15.11
2023-04-19T06:13:00.583Z,15.81
2023-04-19T06:15:03.730Z,16.35
2023-04-19T06:17:06.737Z,16.65
2023-04-19T06:19:10.996Z,17.04
2023-04-19T06:21:13.837Z,15.61
2023-04-19T06:23:18.720Z,14.88
2023-04-19T06:25:22.179Z,14.56
2023-04-19T06:27:25.206Z,15.13
2023-04-19T06:29:28.098Z,15.86
2023-04-19T06:31:31.384Z,16.29
2023-04-19T06:33:34.283Z,16.45
2023-04-19T06:35:38.997Z,16.62
2023-04-19T06:37:42.034Z,17.38
2023-04-19T06:39:45.042Z,16.85
2023-04-19T06:41:47.974Z,16.98
2023-04-19T06:43:52.956Z,17.66
2023-04-19T06:45:59.610Z,17.15
2023-04-19T06:48:04.171Z,17.72
2023-04-19T06:50:09.068Z,17.74
2023-04-19T06:52:13.347Z,17.29
2023-04-19T06:54:16.655Z,16.83
2023-04-19T06:56:19.703Z,17.58
2023-04-19T06:58:22.534Z,17.52
2023-04-19T07:00:25.559Z,17.19
2023-04-19T07:02:28.668Z,17.56
2023-04-19T07:04:31.848Z,16.59
2023-04-19T07:06:35.231Z,18.10
2023-04-19T07:08:49.714Z,18.09
2023-04-19T07:10:53.611Z,17.28
2023-04-19T07:12:56.721Z,17.53
2023-04-19T07:15:00.472Z,17.49
2023-04-19T07:17:05.264Z,17.24
2023-04-19T07:19:08.159Z,18.53
2023-04-19T07:21:11.081Z,19.14
2023-04-19T07:23:14.086Z,17.70
2023-04-19T07:25:18.828Z,17.49
2023-04-19T07:27:22.839Z,17.61
2023-04-19T07:29:25.728Z,17.55
2023-04-19T07:31:29.217Z,17.01
2023-04-19T07:33:32.434Z,17.11
2023-04-19T07:35:36.607Z,17.80
2023-04-19T07:37:39.604Z,16.79
2023-04-19T07:39:42.835Z,16.83
2023-04-19T07:41:47.492Z,16.77
2023-04-19T07:43:50.400Z,17.47
2023-04-19T07:45:53.555Z,17.82
2023-04-19T07:47:56.387Z,17.19
2023-04-19T07:49:59.881Z,18.15
2023-04-19T07:52:03.005Z,18.50
2023-04-19T07:54:05.929Z,19.22
2023-04-19T07:56:11.432Z,19.64
2023-04-19T07:58:17.012Z,19.00
2023-04-19T08:00:21.918Z,18.63
2023-04-19T08:02:28.217Z,18.85
2023-04-19T08:04:35.208Z,18.00
2023-04-19T08:06:40.438Z,17.64
2023-04-19T08:08:44.380Z,17.43
2023-04-19T08:10:48.125Z,16.65
2023-04-19T08:15:28.118Z,17.71
2023-04-19T08:17:30.726Z,18.50
2023-04-19T08:19:39.266Z,17.92
2023-04-19T08:21:42.205Z,17.76
2023-04-19T08:23:48.530Z,17.96
2023-04-19T08:25:55.040Z,17.97
2023-04-19T08:28:03.326Z,18.18
2023-04-19T08:30:10.875Z,17.78
2023-04-19T08:32:14.202Z,16.88
2023-04-19T08:34:17.127Z,17.26
2023-04-19T08:36:25.541Z,17.46
2023-04-19T08:38:38.300Z,16.07
2023-04-19T08:40:43.174Z,16.81
2023-04-19T08:42:46.105Z,15.97
2023-04-19T08:45:09.447Z,16.51
2023-04-19T08:47:27.265Z,16.08
2023-04-19T08:49:36.558Z,16.29
2023-04-19T08:51:39.807Z,16.25
2023-04-19T08:53:42.927Z,16.53
2023-04-19T08:56:04.341Z,17.25
2023-04-19T08:58:19.008Z,17.03
2023-04-19T09:00:29.559Z,16.63
2023-04-19T09:02:47.504Z,16.81
2023-04-19T09:04:51.552Z,16.50
2023-04-19T09:06:55.910Z,16.45
2023-04-19T09:09:24.784Z,17.42
2023-04-19T09:11:39.080Z,17.48
2023-04-19T09:13:44.621Z,16.78
2023-04-19T09:15:47.500Z,16.71
2023-04-19T09:18:05.881Z,16.79
2023-04-19T09:20:09.511Z,17.40
2023-04-19T09:22:13.908Z,17.13
2023-04-19T09:24:16.818Z,17.49
2023-04-19T09:26:23.375Z,17.89
2023-04-19T09:28:26.962Z,17.01
2023-04-19T09:30:32.712Z,17.28
2023-04-19T09:32:49.651Z,16.92
2023-04-19T09:34:55.740Z,16.92
2023-04-19T09:37:11.682Z,17.80
2023-04-19T09:39:29.688Z,17.90
2023-04-19T09:41:33.591Z,17.55
2023-04-19T09:44:00.766Z,17.61
2023-04-19T09:45:59.432Z,17.72
2023-04-19T09:48:04.171Z,18.24
2023-04-19T09:52:18.020Z,17.71
2023-04-19T09:54:22.310Z,17.64
2023-04-19T09:56:25.313Z,17.83
2023-04-19T09:58:34.302Z,18.08
2023-04-19T10:00:49.966Z,17.53
2023-04-19T10:02:58.650Z,17.71
2023-04-19T10:05:19.756Z,17.44
2023-04-19T10:07:30.707Z,16.90
2023-04-19T10:09:45.854Z,16.65
2023-04-19T10:12:03.202Z,15.65
2023-04-19T10:14:15.996Z,15.48
2023-04-19T10:16:20.383Z,15.95
2023-04-19T10:18:24.219Z,15.82
2023-04-19T10:20:33.613Z,15.21
2023-04-19T10:22:38.812Z,15.59
2023-04-19T10:24:44.264Z,15.54
2023-04-19T10:27:12.308Z,15.30
2023-04-19T10:29:17.078Z,15.57
2023-04-19T10:31:23.784Z,15.48
2023-04-19T10:33:29.251Z,15.46
2023-04-19T10:35:37.282Z,15.58
2023-04-19T10:37:42.928Z,15.86
2023-04-19T10:39:46.381Z,15.93
2023-04-19T10:41:59.422Z,15.87
2023-04-19T10:44:13.671Z,16.04
2023-04-19T10:46:20.261Z,16.64
2023-04-19T10:48:38.146Z,16.41
2023-04-19T10:50:58.930Z,16.01
2023-04-19T10:53:44.641Z,16.85
2023-04-19T10:55:51.594Z,17.27
2023-04-19T10:58:05.450Z,17.24
2023-04-19T11:00:21.426Z,17.31
2023-04-19T11:02:32.581Z,17.42
2023-04-19T11:05:02.529Z,17.42
2023-04-19T11:07:07.414Z,17.54
2023-04-19T11:09:12.030Z,17.93
2023-04-19T11:11:15.817Z,17.10
2023-04-19T11:13:18.677Z,17.08
2023-04-19T11:15:23.325Z,17.05
2023-04-19T11:17:28.311Z,17.34
2023-04-19T11:19:31.437Z,16.97
2023-04-19T11:21:34.492Z,16.75
2023-04-19T11:23:37.378Z,17.47
2023-04-19T11:25:41.646Z,17.80
2023-04-19T11:27:45.645Z,17.93
2023-04-19T11:29:49.092Z,17.98
2023-04-19T11:31:52.411Z,18.19
2023-04-19T11:33:55.843Z,18.43
2023-04-19T11:35:58.722Z,18.49
2023-04-19T11:38:01.655Z,18.62
2023-04-19T11:40:06.297Z,18.40
2023-04-19T11:42:18.444Z,18.57
2023-04-19T11:44:21.712Z,18.52
2023-04-19T11:46:24.701Z,18.48
2023-04-19T11:48:27.782Z,18.58
2023-04-19T11:50:35.315Z,18.68
2023-04-19T11:52:39.181Z,18.40
2023-04-19T11:54:42.256Z,18.48
2023-04-19T11:57:01.977Z,18.11
2023-04-19T11:59:10.863Z,17.44
2023-04-19T12:01:14.841Z,17.12
2023-04-19T12:03:18.122Z,17.18
2023-04-19T12:05:22.166Z,18.26
2023-04-19T12:07:25.258Z,18.42
2023-04-19T12:09:28.387Z,18.13
2023-04-19T12:11:44.435Z,18.17
2023-04-19T12:13:47.942Z,18.08
2023-04-19T12:15:53.849Z,18.12
2023-04-19T12:17:58.243Z,17.62
2023-04-19T12:20:01.120Z,18.06
2023-04-19T12:22:11.404Z,18.57
2023-04-19T12:24:16.547Z,18.99
2023-04-19T12:26:21.199Z,18.83
2023-04-19T12:28:24.097Z,18.35
2023-04-19T12:30:27.553Z,18.52
2023-04-19T12:32:32.003Z,18.68
2023-04-19T12:34:35.895Z,18.70
2023-04-19T12:36:38.836Z,18.62
2023-04-19T12:38:42.119Z,18.08
2023-04-19T12:40:45.049Z,17.36
2023-04-19T12:42:49.434Z,17.91
2023-04-19T12:44:52.923Z,18.08
2023-04-19T12:46:57.731Z,18.10
2023-04-19T12:49:02.611Z,18.10
2023-04-19T12:51:07.761Z,17.84
2023-04-19T12:53:10.997Z,18.21
2023-04-19T12:55:14.105Z,18.41
2023-04-19T12:57:17.244Z,18.62
2023-04-19T12:59:20.461Z,18.86
2023-04-19T13:01:23.508Z,19.06
2023-04-19T13:03:26.554Z,18.79
2023-04-19T13:05:30.906Z,18.60
2023-04-19T13:07:33.887Z,18.16
2023-04-19T13:09:36.828Z,18.44
2023-04-19T13:11:39.685Z,18.44
2023-04-19T13:13:42.577Z,19.17
2023-04-19T13:15:45.724Z,18.99
2023-04-19T13:17:48.714Z,19.36
2023-04-19T13:19:51.608Z,19.99
2023-04-19T13:21:56.008Z,18.92
2023-04-19T13:23:59.533Z,18.14
2023-04-19T13:26:02.870Z,18.71
2023-04-19T13:28:06.010Z,19.06
2023-04-19T13:30:10.185Z,19.29
2023-04-19T13:32:13.845Z,18.31
2023-04-19T13:34:16.984Z,18.35
2023-04-19T13:36:20.183Z,17.92
2023-04-19T13:38:24.801Z,17.63
2023-04-19T13:40:28.711Z,17.40
2023-04-19T13:42:31.596Z,17.32
2023-04-19T13:44:34.473Z,17.11
2023-04-19T13:46:37.493Z,17.94
2023-04-19T13:48:40.875Z,18.33
2023-04-19T13:50:43.851Z,18.63
2023-04-19T13:52:46.982Z,18.10
2023-04-19T13:54:51.231Z,18.49
2023-04-19T13:56:54.108Z,18.83
2023-04-19T13:58:57.003Z,18.57
2023-04-19T14:01:00.025Z,18.93
2023-04-19T14:03:03.054Z,18.41
2023-04-19T14:05:06.878Z,18.07
2023-04-19T14:07:09.987Z,18.07
2023-04-19T14:09:12.949Z,18.06
2023-04-19T14:11:20.279Z,17.95
2023-04-19T14:13:24.334Z,18.21
2023-04-19T14:15:27.370Z,18.36
2023-04-19T14:17:30.281Z,18.43
2023-04-19T14:19:34.867Z,18.74
2023-04-19T14:21:38.281Z,18.57
2023-04-19T14:23:41.958Z,18.92
2023-04-19T14:25:45.827Z,18.85
2023-04-19T14:27:50.156Z,18.83
2023-04-19T14:29:53.390Z,18.94
2023-04-19T14:32:05.140Z,18.88
2023-04-19T14:34:13.488Z,19.00
2023-04-19T14:36:17.941Z,19.12
2023-04-19T14:38:22.481Z,19.17
2023-04-19T14:40:26.087Z,19.20
2023-04-19T14:42:32.217Z,18.71
2023-04-19T14:44:39.009Z,19.03
2023-04-19T14:46:59.675Z,19.07
2023-04-19T14:49:06.152Z,18.98
2023-04-19T14:51:12.051Z,19.02
2023-04-19T14:53:17.954Z,18.81
2023-04-19T14:55:22.717Z,18.97
2023-04-19T14:57:25.929Z,17.91
2023-04-19T14:59:30.011Z,18.43
2023-04-19T15:01:38.122Z,18.59
2023-04-19T15:03:41.514Z,18.54
2023-04-19T15:05:45.388Z,18.34
2023-04-19T15:07:48.671Z,17.84
2023-04-19T15:09:52.680Z,17.41
2023-04-19T15:11:56.020Z,17.23
2023-04-19T15:13:58.891Z,16.83
2023-04-19T15:16:03.989Z,17.22
2023-04-19T15:18:09.164Z,17.06
2023-04-19T15:20:14.707Z,16.95
2023-04-19T15:22:18.221Z,17.28
2023-04-19T15:24:22.844Z,17.43
2023-04-19T15:26:26.549Z,17.69
2023-04-19T15:28:30.311Z,17.77
2023-04-19T15:30:34.130Z,17.57
2023-04-19T15:32:38.844Z,17.48
2023-04-19T15:34:44.317Z,17.39
2023-04-19T15:36:48.470Z,17.57
2023-04-19T15:38:53.502Z,17.37
2023-04-19T15:40:57.617Z,17.38
2023-04-19T15:43:00.619Z,17.57
2023-04-19T15:45:08.435Z,17.20
2023-04-19T15:47:11.402Z,17.20
2023-04-19T15:49:15.030Z,16.98
2023-04-19T15:51:23.749Z,17.00
2023-04-19T15:53:26.960Z,17.05
2023-04-19T15:55:30.776Z,16.79
2023-04-19T15:57:34.446Z,16.90
2023-04-19T15:59:38.487Z,16.71
2023-04-19T16:01:42.984Z,16.83
2023-04-19T16:03:51.138Z,16.83
2023-04-19T16:05:56.492Z,16.98
2023-04-19T16:08:06.337Z,16.81
2023-04-19T16:10:12.120Z,16.72
2023-04-19T16:12:16.423Z,16.87
2023-04-19T16:14:19.325Z,16.85
2023-04-19T16:16:23.153Z,16.54
2023-04-19T16:18:26.456Z,16.72
2023-04-19T16:20:32.290Z,16.80
2023-04-19T16:22:37.916Z,16.57
2023-04-19T16:24:42.281Z,16.43
2023-04-19T16:26:46.763Z,16.07
2023-04-19T16:28:50.038Z,15.45
2023-04-19T16:30:55.482Z,15.50
2023-04-19T16:33:00.521Z,15.58
2023-04-19T16:35:06.293Z,15.82
2023-04-19T16:37:10.240Z,15.82
2023-04-19T16:39:14.777Z,15.79
2023-04-19T16:41:20.522Z,16.05
2023-04-19T16:43:23.744Z,16.00
2023-04-19T16:45:31.247Z,15.79
2023-04-19T16:47:37.677Z,15.83
2023-04-19T16:49:41.564Z,15.46
2023-04-19T16:51:44.616Z,15.29
2023-04-19T16:53:48.483Z,15.18
2023-04-19T16:55:53.901Z,15.09
2023-04-19T16:57:59.745Z,15.16
2023-04-19T17:00:07.408Z,15.22
2023-04-19T17:02:12.097Z,15.21
2023-04-19T17:04:15.427Z,14.98
2023-04-19T17:06:18.613Z,15.02
2023-04-19T17:08:22.253Z,14.82
2023-04-19T17:10:25.938Z,14.77
2023-04-19T17:12:29.019Z,14.65
2023-04-19T17:14:35.147Z,14.35
2023-04-19T17:16:38.437Z,14.54
2023-04-19T17:18:41.354Z,14.36
2023-04-19T17:20:44.844Z,14.36
2023-04-19T17:22:48.216Z,14.28
2023-04-19T17:24:51.299Z,14.34
2023-04-19T17:26:54.239Z,14.33
2023-04-19T17:28:57.152Z,14.23
2023-04-19T17:31:01.619Z,14.07
2023-04-19T17:33:04.768Z,13.95
2023-04-19T17:35:08.369Z,14.05
2023-04-19T17:37:11.274Z,13.98
2023-04-19T17:39:14.443Z,13.92
2023-04-19T17:41:17.535Z,13.91
2023-04-19T17:43:20.941Z,13.99
2023-04-19T17:45:24.998Z,13.91
2023-04-19T17:47:29.313Z,13.70
2023-04-19T17:49:32.230Z,13.67
2023-04-19T17:51:35.567Z,13.65
2023-04-19T17:53:38.728Z,13.46
2023-04-19T17:55:42.096Z,13.65
2023-04-19T17:57:47.269Z,13.43
2023-04-19T17:59:50.238Z,13.48
2023-04-19T18:01:53.296Z,13.31
2023-04-19T18:03:57.736Z,13.37
2023-04-19T18:06:01.045Z,13.26
2023-04-19T18:08:04.389Z,13.40
2023-04-19T18:10:08.192Z,13.26
2023-04-19T18:12:11.094Z,13.32
2023-04-19T18:14:15.238Z,13.23
2023-04-19T18:16:19.605Z,13.17
2023-04-19T18:18:23.270Z,13.17
2023-04-19T18:20:27.520Z,13.01
2023-04-19T18:22:30.451Z,13.17
2023-04-19T18:24:33.499Z,13.18
2023-04-19T18:26:40.413Z,13.10
2023-04-19T18:28:43.419Z,13.06
2023-04-19T18:30:46.576Z,13.16
2023-04-19T18:32:49.663Z,13.11
2023-04-19T18:34:52.865Z,13.00
2023-04-19T18:36:59.875Z,12.94
2023-04-19T18:39:03.125Z,12.92
2023-04-19T18:41:06.278Z,12.68
2023-04-19T18:43:09.259Z,12.56
2023-04-19T18:45:12.866Z,12.63
2023-04-19T18:47:15.744Z,12.56
2023-04-19T18:49:18.838Z,12.44
2023-04-19T18:51:21.997Z,12.50
2023-04-19T18:53:29.498Z,12.40
2023-04-19T18:55:32.555Z,12.35
2023-04-19T18:57:35.999Z,12.39
2023-04-19T18:59:40.888Z,12.26
2023-04-19T19:01:45.257Z,12.28
2023-04-19T19:04:12.452Z,12.29
2023-04-19T19:06:14.989Z,12.33
2023-04-19T19:08:18.412Z,12.21
2023-04-19T19:10:54.231Z,12.20
2023-04-19T19:12:50.141Z,12.12
2023-04-19T19:14:54.768Z,12.16
2023-04-19T19:16:59.757Z,12.11
2023-04-19T19:19:03.177Z,12.12
2023-04-19T19:21:08.863Z,12.19
2023-04-19T19:23:13.057Z,12.20
2023-04-19T19:25:17.668Z,12.13
2023-04-19T19:27:22.325Z,12.13
2023-04-19T19:29:25.782Z,12.07
2023-04-19T19:31:30.058Z,12.00
2023-04-19T19:33:33.556Z,11.95
2023-04-19T19:35:36.651Z,11.78
2023-04-19T19:37:39.892Z,11.82
2023-04-19T19:39:42.985Z,11.88
2023-04-19T19:42:03.158Z,11.88
2023-04-19T19:44:10.536Z,11.68
2023-04-19T19:46:14.142Z,11.67
2023-04-19T19:48:17.564Z,11.76
2023-04-19T19:52:30.097Z,11.65
2023-04-19T19:54:32.994Z,11.70
2023-04-19T19:56:36.217Z,11.57
2023-04-19T19:58:49.776Z,11.68
2023-04-19T20:00:56.300Z,11.63
2023-04-19T20:03:00.230Z,11.66
2023-04-19T20:05:05.526Z,11.63
2023-04-19T20:07:32.930Z,11.55
2023-04-19T20:09:31.755Z,11.60
2023-04-19T20:11:34.783Z,11.51
2023-04-19T20:13:37.764Z,11.56
2023-04-19T20:15:41.178Z,11.56
2023-04-19T20:17:45.540Z,11.48
2023-04-19T20:19:52.160Z,11.45
2023-04-19T20:21:55.060Z,11.45
2023-04-19T20:23:57.925Z,11.36
2023-04-19T20:26:01.807Z,11.33
2023-04-19T20:28:05.229Z,11.22
2023-04-19T20:30:09.878Z,11.10
2023-04-19T20:32:13.091Z,11.16
2023-04-19T20:34:17.378Z,11.17
2023-04-19T20:36:22.534Z,11.16
2023-04-19T20:38:26.687Z,11.13
2023-04-19T20:40:30.472Z,10.86
2023-04-19T20:42:33.586Z,10.97
2023-04-19T20:44:36.477Z,10.82
2023-04-19T20:46:39.388Z,10.79
2023-04-19T20:48:42.288Z,10.83
2023-04-19T20:50:46.556Z,10.86
2023-04-19T20:52:49.672Z,10.71
2023-04-19T20:54:54.473Z,10.59
2023-04-19T20:57:01.864Z,10.61
2023-04-19T20:59:04.756Z,10.71
2023-04-19T21:01:07.694Z,10.49
2023-04-19T21:03:13.102Z,10.46
2023-04-19T21:05:16.097Z,10.45
2023-04-19T21:07:20.332Z,10.53
2023-04-19T21:09:27.077Z,10.48
2023-04-19T21:11:30.071Z,10.51
2023-04-19T21:13:33.328Z,10.52
2023-04-19T21:15:36.917Z,10.52
2023-04-19T21:17:40.375Z,10.45
2023-04-19T21:19:43.272Z,10.23
2023-04-19T21:21:46.168Z,10.38
2023-04-19T21:23:50.843Z,10.45
2023-04-19T21:25:54.054Z,10.30
2023-04-19T21:27:56.859Z,10.30
2023-04-19T21:29:59.704Z,10.32
2023-04-19T21:32:02.590Z,10.27
2023-04-19T21:34:05.522Z,10.39
2023-04-19T21:36:08.823Z,10.35
2023-04-19T21:38:11.796Z,10.35
2023-04-19T21:40:18.796Z,10.27
2023-04-19T21:42:22.348Z,10.46
2023-04-19T21:44:25.237Z,10.51
2023-04-19T21:46:28.207Z,10.60
2023-04-19T21:48:31.226Z,10.63
2023-04-19T21:50:34.102Z,10.62
2023-04-19T21:52:36.994Z,10.55
2023-04-19T21:54:39.792Z,10.32
2023-04-19T21:56:43.981Z,10.50
2023-04-19T21:58:47.343Z,10.48
2023-04-19T22:00:50.305Z,10.46
2023-04-19T22:02:53.332Z,10.19
2023-04-19T22:04:56.676Z,10.39
2023-04-19T22:07:02.028Z,10.49
2023-04-19T22:09:05.616Z,10.48
2023-04-19T22:11:08.479Z,10.38
2023-04-19T22:13:14.211Z,10.14
2023-04-19T22:15:18.175Z,10.06
2023-04-19T22:17:21.440Z,10.12
2023-04-19T22:19:24.783Z,10.16
2023-04-19T22:21:27.785Z,10.09
2023-04-19T22:23:30.943Z,10.14
2023-04-19T22:25:33.812Z,10.16
2023-04-19T22:27:36.676Z,10.15
2023-04-19T22:29:40.933Z,10.00
2023-04-19T22:31:43.888Z,9.84
2023-04-19T22:33:46.782Z,9.83
2023-04-19T22:35:49.903Z,9.88
2023-04-19T22:37:52.725Z,9.90
2023-04-19T22:39:55.883Z,9.94
2023-04-19T22:41:59.006Z,9.95
2023-04-19T22:44:01.886Z,9.91
2023-04-19T22:46:06.460Z,9.83
2023-04-19T22:48:09.383Z,10.03
2023-04-19T22:50:12.614Z,9.79
2023-04-19T22:52:15.721Z,9.78
2023-04-19T22:54:18.585Z,9.93
2023-04-19T22:56:21.444Z,9.89
2023-04-19T22:58:24.353Z,9.88
2023-04-19T23:00:27.551Z,9.86
2023-04-19T23:02:31.764Z,9.78
2023-04-19T23:04:35.345Z,9.89
2023-04-19T23:06:38.771Z,10.00
2023-04-19T23:08:41.706Z,9.83
2023-04-19T23:10:45.267Z,9.86
2023-04-19T23:12:49.027Z,10.04
2023-04-19T23:14:51.913Z,10.14
2023-04-19T23:16:55.790Z,10.20
2023-04-19T23:19:00.713Z,10.12
2023-04-19T23:21:04.106Z,10.06
2023-04-19T23:23:07.937Z,10.17
2023-04-19T23:25:11.345Z,10.23
2023-04-19T23:27:14.200Z,10.27
2023-04-19T23:29:17.201Z,10.27
2023-04-19T23:31:20.144Z,10.14
2023-04-19T23:33:23.080Z,10.25
2023-04-19T23:35:27.514Z,10.18
2023-04-19T23:37:30.640Z,10.11
2023-04-19T23:39:33.536Z,10.09
2023-04-19T23:41:36.493Z,10.18
2023-04-19T23:43:39.573Z,10.17
2023-04-19T23:45:42.491Z,10.06
2023-04-19T23:47:45.430Z,10.01
2023-04-19T23:49:48.486Z,9.98
2023-04-19T23:51:52.682Z,10.10
2023-04-19T23:53:55.490Z,10.14
2023-04-19T23:55:58.423Z,10.14
2023-04-19T23:58:01.376Z,10.00
